createdAt,value
2023-02-07T00:00:01.263Z,0.00
2023-02-07T00:01:01.294Z,0.00
2023-02-07T00:02:01.282Z,0.00
2023-02-07T00:03:01.279Z,0.00
2023-02-07T00:04:01.233Z,0.00
2023-02-07T00:05:01.202Z,0.00
2023-02-07T00:06:01.216Z,0.00
2023-02-07T00:07:01.186Z,0.00
2023-02-07T00:08:01.186Z,0.00
2023-02-07T00:09:01.135Z,0.00
2023-02-07T00:10:01.148Z,0.00
2023-02-07T00:11:01.138Z,0.00
2023-02-07T00:12:01.248Z,0.00
2023-02-07T00:13:01.153Z,0.00
2023-02-07T00:14:01.082Z,0.00
2023-02-07T00:15:01.065Z,0.00
2023-02-07T00:16:01.064Z,0.00
2023-02-07T00:17:01.147Z,0.00
2023-02-07T00:18:01.079Z,0.00
2023-02-07T00:19:01.076Z,0.00
2023-02-07T00:20:01.058Z,0.00
2023-02-07T00:21:01.008Z,0.00
2023-02-07T00:22:01.013Z,0.00
2023-02-07T00:23:01.005Z,0.00
2023-02-07T00:24:01.018Z,0.00
2023-02-07T00:25:01.003Z,0.00
2023-02-07T00:26:01.026Z,0.00
2023-02-07T00:27:01.043Z,0.00
2023-02-07T00:28:00.996Z,0.00
2023-02-07T00:29:00.950Z,0.00
2023-02-07T00:30:00.958Z,0.00
2023-02-07T00:31:01.001Z,0.00
2023-02-07T00:32:00.883Z,0.00
2023-02-07T00:33:00.878Z,0.00
2023-02-07T00:34:00.955Z,0.00
2023-02-07T00:35:00.890Z,0.00
2023-02-07T00:36:00.904Z,0.00
2023-02-07T00:37:00.850Z,0.00
2023-02-07T00:38:00.803Z,0.00
2023-02-07T00:39:00.886Z,0.00
2023-02-07T00:40:00.814Z,0.00
2023-02-07T00:41:00.829Z,0.00
2023-02-07T00:42:00.842Z,0.00
2023-02-07T00:43:00.835Z,0.00
2023-02-07T00:44:00.812Z,0.00
2023-02-07T00:45:00.759Z,0.00
2023-02-07T00:46:00.809Z,0.00
2023-02-07T00:47:00.770Z,0.00
2023-02-07T00:48:00.763Z,0.00
2023-02-07T00:49:00.784Z,0.00
2023-02-07T00:50:00.689Z,0.00
2023-02-07T00:51:00.797Z,0.00
2023-02-07T00:52:00.704Z,0.00
2023-02-07T00:53:00.714Z,0.00
2023-02-07T00:54:00.735Z,0.00
2023-02-07T00:55:00.696Z,0.00
2023-02-07T00:56:00.613Z,0.00
2023-02-07T00:57:00.662Z,0.00
2023-02-07T00:58:00.662Z,0.00
2023-02-07T00:59:00.676Z,0.00
2023-02-07T01:00:00.626Z,0.00
2023-02-07T01:01:00.722Z,0.00
2023-02-07T01:02:00.601Z,0.00
2023-02-07T01:03:00.599Z,0.00
2023-02-07T01:04:00.617Z,0.00
2023-02-07T01:05:00.724Z,0.00
2023-02-07T01:06:00.600Z,0.00
2023-02-07T01:07:00.564Z,0.00
2023-02-07T01:08:00.542Z,0.00
2023-02-07T01:09:00.556Z,0.00
2023-02-07T01:10:00.526Z,0.00
2023-02-07T01:11:00.482Z,0.00
2023-02-07T01:12:00.492Z,0.00
2023-02-07T01:13:00.504Z,0.00
2023-02-07T01:14:00.443Z,0.00
2023-02-07T01:15:00.447Z,0.00
2023-02-07T01:16:00.686Z,0.00
2023-02-07T01:17:00.461Z,0.00
2023-02-07T01:18:00.428Z,0.00
2023-02-07T01:19:00.438Z,0.00
2023-02-07T01:20:00.381Z,0.00
2023-02-07T01:21:00.387Z,0.00
2023-02-07T01:22:00.391Z,0.00
2023-02-07T01:23:00.366Z,0.00
2023-02-07T01:24:00.377Z,0.00
2023-02-07T01:25:00.337Z,0.00
2023-02-07T01:26:00.343Z,0.00
2023-02-07T01:27:00.347Z,0.00
2023-02-07T01:28:00.442Z,0.00
2023-02-07T01:29:00.304Z,0.00
2023-02-07T01:30:00.468Z,0.00
2023-02-07T01:31:00.405Z,0.00
2023-02-07T01:32:00.279Z,0.00
2023-02-07T01:33:00.297Z,0.00
2023-02-07T01:34:00.305Z,0.00
2023-02-07T01:35:00.246Z,0.00
2023-02-07T01:36:00.350Z,0.00
2023-02-07T01:37:00.219Z,0.00
2023-02-07T01:38:00.217Z,0.00
2023-02-07T01:39:00.225Z,0.00
2023-02-07T01:40:00.175Z,0.00
2023-02-07T01:41:00.186Z,0.00
2023-02-07T01:42:00.185Z,0.00
2023-02-07T01:43:00.199Z,0.00
2023-02-07T01:44:00.159Z,0.00
2023-02-07T01:45:00.162Z,0.00
2023-02-07T01:46:00.171Z,0.00
2023-02-07T01:47:00.117Z,0.00
2023-02-07T01:48:00.184Z,0.00
2023-02-07T01:49:00.107Z,0.00
2023-02-07T01:50:00.124Z,0.00
2023-02-07T01:51:00.109Z,0.00
2023-02-07T01:52:00.060Z,0.00
2023-02-07T01:53:00.089Z,0.00
2023-02-07T01:54:00.087Z,0.00
2023-02-07T01:55:00.051Z,0.00
2023-02-07T01:55:59.993Z,0.00
2023-02-07T01:56:59.988Z,0.00
2023-02-07T01:57:59.985Z,0.00
2023-02-07T01:59:00.007Z,0.00
2023-02-07T02:00:00.011Z,0.00
2023-02-07T02:00:59.980Z,0.00
2023-02-07T02:01:59.971Z,0.00
2023-02-07T02:02:59.932Z,0.00
2023-02-07T02:03:59.936Z,0.00
2023-02-07T02:04:59.943Z,0.00
2023-02-07T02:05:59.913Z,0.00
2023-02-07T02:06:59.904Z,0.00
2023-02-07T02:07:59.907Z,0.00
2023-02-07T02:08:59.869Z,0.00
2023-02-07T02:09:59.935Z,0.00
2023-02-07T02:10:59.889Z,0.00
2023-02-07T02:11:59.848Z,0.00
2023-02-07T02:12:59.845Z,0.00
2023-02-07T02:13:59.873Z,0.00
2023-02-07T02:14:59.866Z,0.00
2023-02-07T02:15:59.839Z,0.00
2023-02-07T02:16:59.816Z,0.00
2023-02-07T02:17:59.783Z,0.00
2023-02-07T02:18:59.791Z,0.00
2023-02-07T02:19:59.743Z,0.00
2023-02-07T02:20:59.740Z,0.00
2023-02-07T02:21:59.750Z,0.00
2023-02-07T02:22:59.743Z,0.00
2023-02-07T02:23:59.838Z,0.00
2023-02-07T02:24:59.724Z,0.00
2023-02-07T02:25:59.677Z,0.00
2023-02-07T02:26:59.691Z,0.00
2023-02-07T02:27:59.716Z,0.00
2023-02-07T02:28:59.701Z,0.00
2023-02-07T02:29:59.815Z,0.00
2023-02-07T02:30:59.806Z,0.00
2023-02-07T02:31:59.617Z,0.00
2023-02-07T02:32:59.603Z,0.00
2023-02-07T02:33:59.640Z,0.00
2023-02-07T02:34:59.588Z,0.00
2023-02-07T02:35:59.598Z,0.00
2023-02-07T02:36:59.606Z,0.00
2023-02-07T02:37:59.575Z,0.00
2023-02-07T02:38:59.537Z,0.00
2023-02-07T02:39:59.544Z,0.00
2023-02-07T02:40:59.544Z,0.00
2023-02-07T02:41:59.554Z,0.00
2023-02-07T02:42:59.564Z,0.00
2023-02-07T02:43:59.524Z,0.00
2023-02-07T02:44:59.527Z,0.00
2023-02-07T02:45:59.485Z,0.00
2023-02-07T02:47:00.195Z,0.00
2023-02-07T02:47:59.496Z,0.00
2023-02-07T02:48:59.495Z,0.00
2023-02-07T02:49:59.503Z,0.00
2023-02-07T02:50:59.431Z,0.00
2023-02-07T02:51:59.433Z,0.00
2023-02-07T02:52:59.424Z,0.00
2023-02-07T02:53:59.431Z,0.00
2023-02-07T02:54:59.438Z,0.00
2023-02-07T02:55:59.415Z,0.00
2023-02-07T02:56:59.352Z,0.00
2023-02-07T02:58:00.960Z,0.00
2023-02-07T02:58:59.362Z,0.00
2023-02-07T02:59:59.361Z,0.00
2023-02-07T03:00:59.373Z,0.00
2023-02-07T03:01:59.475Z,0.00
2023-02-07T03:02:59.293Z,0.00
2023-02-07T03:03:59.296Z,0.00
2023-02-07T03:04:59.317Z,0.00
2023-02-07T03:05:59.313Z,0.00
2023-02-07T03:06:59.276Z,0.00
2023-02-07T03:07:59.302Z,0.00
2023-02-07T03:08:59.241Z,0.00
2023-02-07T03:09:59.245Z,0.00
2023-02-07T03:10:59.248Z,0.00
2023-02-07T03:11:59.875Z,0.00
2023-02-07T03:12:59.222Z,0.00
2023-02-07T03:13:59.178Z,0.00
2023-02-07T03:14:59.182Z,0.00
2023-02-07T03:15:59.204Z,0.00
2023-02-07T03:16:59.713Z,0.00
2023-02-07T03:17:59.207Z,0.00
2023-02-07T03:18:59.117Z,0.00
2023-02-07T03:19:59.119Z,0.00
2023-02-07T03:21:00.556Z,0.00
2023-02-07T03:21:59.138Z,0.00
2023-02-07T03:22:59.104Z,0.00
2023-02-07T03:23:59.052Z,0.00
2023-02-07T03:24:59.117Z,0.00
2023-02-07T03:25:59.058Z,0.00
2023-02-07T03:26:59.153Z,0.00
2023-02-07T03:27:59.076Z,0.00
2023-02-07T03:28:59.046Z,0.00
2023-02-07T03:29:58.990Z,0.00
2023-02-07T03:30:59.011Z,1.00
2023-02-07T03:31:58.948Z,1.00
2023-02-07T03:32:58.955Z,1.00
2023-02-07T03:33:58.899Z,1.00
2023-02-07T03:34:58.902Z,1.00
2023-02-07T03:35:58.916Z,1.00
2023-02-07T03:36:58.980Z,1.00
2023-02-07T03:37:58.819Z,1.00
2023-02-07T03:38:58.893Z,1.00
2023-02-07T03:39:58.900Z,1.00
2023-02-07T03:40:58.848Z,1.00
2023-02-07T03:41:58.843Z,1.00
2023-02-07T03:42:58.847Z,1.00
2023-02-07T03:43:58.767Z,1.00
2023-02-07T03:44:58.768Z,1.00
2023-02-07T03:45:58.769Z,1.00
2023-02-07T03:46:58.771Z,1.00
2023-02-07T03:47:58.781Z,1.00
2023-02-07T03:48:58.783Z,1.00
2023-02-07T03:49:58.702Z,1.00
2023-02-07T03:50:58.698Z,1.00
2023-02-07T03:51:58.700Z,1.00
2023-02-07T03:52:59.433Z,1.00
2023-02-07T03:53:58.712Z,1.00
2023-02-07T03:54:58.678Z,1.00
2023-02-07T03:55:58.636Z,1.00
2023-02-07T03:56:58.649Z,1.00
2023-02-07T03:57:58.646Z,1.00
2023-02-07T03:58:58.657Z,1.00
2023-02-07T03:59:58.654Z,1.00
2023-02-07T04:00:58.704Z,1.00
2023-02-07T04:01:58.621Z,1.00
2023-02-07T04:02:58.569Z,1.00
2023-02-07T04:03:58.581Z,1.00
2023-02-07T04:04:58.661Z,1.00
2023-02-07T04:05:58.592Z,1.00
2023-02-07T04:06:58.600Z,1.00
2023-02-07T04:07:58.509Z,1.00
2023-02-07T04:08:58.514Z,1.00
2023-02-07T04:09:58.533Z,1.00
2023-02-07T04:10:58.536Z,1.00
2023-02-07T04:11:58.571Z,1.00
2023-02-07T04:12:58.535Z,1.00
2023-02-07T04:13:58.452Z,1.00
2023-02-07T04:14:58.461Z,1.00
2023-02-07T04:15:58.492Z,1.00
2023-02-07T04:16:58.465Z,1.00
2023-02-07T04:17:58.571Z,1.00
2023-02-07T04:18:58.433Z,1.00
2023-02-07T04:19:58.380Z,1.00
2023-02-07T04:20:58.389Z,1.00
2023-02-07T04:21:58.459Z,1.00
2023-02-07T04:22:58.406Z,1.00
2023-02-07T04:23:58.418Z,1.00
2023-02-07T04:24:58.375Z,1.00
2023-02-07T04:25:58.390Z,1.00
2023-02-07T04:26:58.391Z,1.00
2023-02-07T04:27:58.384Z,1.00
2023-02-07T04:28:58.425Z,1.00
2023-02-07T04:29:58.326Z,1.00
2023-02-07T04:30:58.532Z,1.00
2023-02-07T04:31:59.130Z,1.00
2023-02-07T04:32:58.269Z,1.00
2023-02-07T04:33:58.277Z,1.00
2023-02-07T04:34:58.310Z,1.00
2023-02-07T04:35:58.725Z,1.00
2023-02-07T04:36:58.218Z,1.00
2023-02-07T04:37:58.238Z,1.00
2023-02-07T04:38:58.212Z,1.00
2023-02-07T04:39:58.236Z,1.00
2023-02-07T04:40:58.241Z,1.00
2023-02-07T04:41:58.291Z,1.00
2023-02-07T04:42:58.202Z,1.00
2023-02-07T04:43:58.139Z,1.00
2023-02-07T04:44:58.416Z,1.00
2023-02-07T04:45:58.271Z,1.00
2023-02-07T04:46:58.224Z,1.00
2023-02-07T04:47:58.341Z,1.00
2023-02-07T04:48:58.086Z,1.00
2023-02-07T04:49:58.147Z,1.00
2023-02-07T04:50:58.172Z,1.00
2023-02-07T04:51:58.153Z,1.00
2023-02-07T04:52:58.167Z,1.00
2023-02-07T04:53:58.118Z,1.00
2023-02-07T04:54:58.076Z,1.00
2023-02-07T04:55:58.096Z,1.00
2023-02-07T04:56:58.197Z,1.00
2023-02-07T04:57:58.102Z,1.00
2023-02-07T04:58:58.101Z,1.00
2023-02-07T04:59:58.117Z,1.00
2023-02-07T05:00:58.030Z,1.00
2023-02-07T05:01:58.036Z,1.00
2023-02-07T05:03:00.401Z,1.00
2023-02-07T05:03:58.042Z,1.00
2023-02-07T05:04:58.158Z,1.00
2023-02-07T05:05:57.950Z,1.00
2023-02-07T05:06:57.967Z,1.00
2023-02-07T05:07:57.972Z,1.00
2023-02-07T05:08:57.977Z,1.00
2023-02-07T05:09:57.978Z,1.00
2023-02-07T05:10:57.996Z,1.00
2023-02-07T05:11:57.994Z,1.00
2023-02-07T05:12:57.871Z,1.00
2023-02-07T05:13:57.900Z,1.00
2023-02-07T05:14:59.287Z,1.00
2023-02-07T05:15:57.931Z,1.00
2023-02-07T05:16:58.007Z,1.00
2023-02-07T05:17:57.833Z,1.00
2023-02-07T05:18:57.941Z,1.00
2023-02-07T05:19:57.829Z,1.00
2023-02-07T05:20:57.855Z,1.00
2023-02-07T05:21:57.836Z,1.00
2023-02-07T05:22:57.889Z,1.00
2023-02-07T05:23:58.284Z,1.00
2023-02-07T05:24:57.787Z,1.00
2023-02-07T05:25:57.760Z,1.00
2023-02-07T05:26:57.712Z,1.00
2023-02-07T05:27:57.786Z,1.00
2023-02-07T05:28:57.786Z,1.00
2023-02-07T05:29:58.298Z,1.00
2023-02-07T05:30:57.783Z,1.00
2023-02-07T05:31:57.708Z,1.00
2023-02-07T05:32:57.644Z,1.00
2023-02-07T05:33:57.657Z,1.00
2023-02-07T05:34:57.723Z,1.00
2023-02-07T05:35:57.625Z,1.00
2023-02-07T05:36:57.675Z,1.00
2023-02-07T05:37:57.634Z,1.00
2023-02-07T05:38:57.678Z,1.00
2023-02-07T05:39:57.652Z,1.00
2023-02-07T05:40:57.590Z,1.00
2023-02-07T05:41:57.566Z,1.00
2023-02-07T05:42:57.568Z,1.00
2023-02-07T05:43:57.573Z,1.00
2023-02-07T05:44:57.581Z,1.00
2023-02-07T05:45:57.615Z,1.00
2023-02-07T05:46:57.528Z,1.00
2023-02-07T05:47:57.535Z,1.00
2023-02-07T05:48:57.753Z,1.00
2023-02-07T05:49:57.525Z,1.00
2023-02-07T05:50:57.498Z,1.00
2023-02-07T05:51:57.454Z,1.00
2023-02-07T05:52:57.405Z,1.00
2023-02-07T05:53:57.414Z,1.00
2023-02-07T05:54:57.380Z,1.00
2023-02-07T05:55:57.387Z,1.00
2023-02-07T05:56:57.387Z,1.00
2023-02-07T05:57:57.402Z,1.00
2023-02-07T05:58:57.363Z,1.00
2023-02-07T05:59:57.411Z,1.00
2023-02-07T06:00:57.423Z,1.00
2023-02-07T06:01:57.318Z,1.00
2023-02-07T06:02:57.308Z,1.00
2023-02-07T06:12:37.297Z,1.00
2023-02-07T06:13:37.978Z,1.00
2023-02-07T06:14:37.890Z,1.00
2023-02-07T06:15:38.148Z,1.00
2023-02-07T06:16:37.848Z,1.00
2023-02-07T06:17:41.385Z,1.00
2023-02-07T06:18:37.854Z,1.00
2023-02-07T06:19:37.817Z,1.00
2023-02-07T06:20:37.824Z,1.00
2023-02-07T06:21:46.419Z,1.00
2023-02-07T06:22:37.775Z,1.00
2023-02-07T06:23:37.874Z,1.00
2023-02-07T06:24:38.393Z,1.00
2023-02-07T06:25:38.084Z,1.00
2023-02-07T06:26:37.790Z,1.00
2023-02-07T06:27:37.796Z,1.00
2023-02-07T06:28:37.774Z,1.00
2023-02-07T06:29:37.780Z,1.00
2023-02-07T06:30:37.747Z,1.00
2023-02-07T06:31:37.787Z,1.00
2023-02-07T06:32:37.712Z,1.00
2023-02-07T06:33:37.703Z,1.00
2023-02-07T06:34:44.298Z,1.00
2023-02-07T06:35:38.259Z,1.00
2023-02-07T06:36:37.658Z,1.00
2023-02-07T06:37:37.640Z,1.00
2023-02-07T06:38:37.637Z,1.00
2023-02-07T06:39:37.572Z,1.00
2023-02-07T06:40:37.577Z,1.00
2023-02-07T06:41:37.594Z,1.00
2023-02-07T06:42:37.556Z,1.00
2023-02-07T06:43:37.601Z,1.00
2023-02-07T06:44:37.570Z,1.00
2023-02-07T06:45:37.903Z,1.00
2023-02-07T06:46:37.546Z,1.00
2023-02-07T06:47:37.532Z,1.00
2023-02-07T06:48:37.505Z,1.00
2023-02-07T06:49:37.458Z,1.00
2023-02-07T06:50:37.452Z,1.00
2023-02-07T06:51:37.455Z,1.00
2023-02-07T06:52:37.473Z,1.00
2023-02-07T06:53:37.492Z,1.00
2023-02-07T06:54:37.436Z,1.00
2023-02-07T06:55:37.723Z,1.00
2023-02-07T06:56:37.404Z,1.00
2023-02-07T06:57:37.396Z,1.00
2023-02-07T06:58:37.467Z,1.00
2023-02-07T06:59:37.412Z,1.00
2023-02-07T07:00:37.366Z,1.00
2023-02-07T07:01:37.376Z,1.00
2023-02-07T07:02:37.359Z,1.00
2023-02-07T07:03:37.386Z,1.00
2023-02-07T07:04:37.332Z,1.00
2023-02-07T07:05:37.705Z,1.00
2023-02-07T07:06:37.308Z,1.00
2023-02-07T07:07:37.324Z,1.00
2023-02-07T07:08:37.328Z,1.00
2023-02-07T07:09:37.331Z,1.00
2023-02-07T07:10:37.308Z,1.00
2023-02-07T07:11:37.348Z,1.00
2023-02-07T07:12:37.248Z,1.00
2023-02-07T07:13:37.252Z,1.00
2023-02-07T07:14:37.262Z,1.00
2023-02-07T07:15:37.520Z,1.00
2023-02-07T07:16:37.224Z,1.00
2023-02-07T07:17:37.238Z,1.00
2023-02-07T07:18:37.202Z,1.00
2023-02-07T07:19:37.187Z,1.00
2023-02-07T07:20:37.146Z,1.00
2023-02-07T07:21:37.145Z,1.00
2023-02-07T07:22:37.327Z,1.00
2023-02-07T07:23:37.123Z,1.00
2023-02-07T07:24:37.135Z,1.00
2023-02-07T07:25:37.560Z,1.00
2023-02-07T07:26:48.786Z,1.00
2023-02-07T07:27:37.094Z,1.00
2023-02-07T07:28:37.196Z,1.00
2023-02-07T07:29:37.087Z,1.00
2023-02-07T07:30:37.073Z,1.00
2023-02-07T07:31:37.185Z,1.00
2023-02-07T07:32:37.027Z,1.00
2023-02-07T07:33:37.139Z,1.00
2023-02-07T07:34:37.110Z,1.00
2023-02-07T07:35:37.161Z,1.00
2023-02-07T07:36:37.051Z,0.00
2023-02-07T07:37:37.052Z,0.00
2023-02-07T07:39:37.036Z,0.00
2023-02-07T07:40:37.336Z,0.00
2023-02-07T07:41:36.976Z,0.00
2023-02-07T07:42:37.018Z,0.00
2023-02-07T07:43:37.000Z,0.00
2023-02-07T07:44:38.480Z,0.00
2023-02-07T07:45:36.971Z,0.00
2023-02-07T07:46:37.010Z,0.00
2023-02-07T07:47:36.917Z,0.00
2023-02-07T07:48:36.977Z,0.00
2023-02-07T07:49:36.924Z,0.00
2023-02-07T07:50:37.281Z,0.00
2023-02-07T07:51:36.877Z,0.00
2023-02-07T07:52:36.915Z,0.00
2023-02-07T07:53:36.922Z,0.00
2023-02-07T07:54:36.929Z,0.00
2023-02-07T07:55:36.880Z,0.00
2023-02-07T07:56:36.824Z,0.00
2023-02-07T07:57:36.870Z,0.00
2023-02-07T07:58:37.301Z,0.00
2023-02-07T07:59:36.824Z,0.00
2023-02-07T08:00:36.867Z,0.00
2023-02-07T08:01:36.866Z,0.00
2023-02-07T08:02:36.749Z,0.00
2023-02-07T08:03:36.817Z,0.00
2023-02-07T08:04:36.772Z,0.00
2023-02-07T08:05:36.726Z,0.00
2023-02-07T08:06:36.778Z,0.00
2023-02-07T08:07:36.728Z,0.00
2023-02-07T08:08:36.690Z,0.00
2023-02-07T08:09:36.792Z,0.00
2023-02-07T08:10:37.092Z,0.00
2023-02-07T08:11:36.762Z,0.00
2023-02-07T08:12:36.663Z,0.00
2023-02-07T08:13:36.684Z,0.00
2023-02-07T08:14:36.737Z,0.00
2023-02-07T08:15:36.686Z,0.00
2023-02-07T08:16:36.731Z,0.00
2023-02-07T08:17:36.610Z,0.00
2023-02-07T08:18:36.620Z,0.00
2023-02-07T08:19:36.623Z,0.00
2023-02-07T08:20:37.069Z,0.00
2023-02-07T08:21:36.566Z,0.00
2023-02-07T08:22:36.572Z,0.00
2023-02-07T08:23:36.593Z,0.00
2023-02-07T08:24:36.588Z,0.00
2023-02-07T08:25:36.919Z,0.00
2023-02-07T08:26:36.664Z,0.00
2023-02-07T08:27:36.508Z,0.00
2023-02-07T08:28:36.520Z,0.00
2023-02-07T08:29:36.485Z,0.00
2023-02-07T08:30:36.954Z,0.00
2023-02-07T08:31:36.588Z,0.00
2023-02-07T08:32:37.056Z,0.00
2023-02-07T08:33:36.403Z,1.00
2023-02-07T08:34:36.448Z,0.00
2023-02-07T08:35:36.374Z,1.00
2023-02-07T08:36:36.366Z,1.00
2023-02-07T08:37:36.429Z,0.00
2023-02-07T08:38:36.440Z,0.00
2023-02-07T08:39:36.380Z,0.00
2023-02-07T08:40:37.105Z,0.00
2023-02-07T08:41:36.298Z,1.00
2023-02-07T08:42:36.814Z,0.00
2023-02-07T08:43:36.365Z,0.00
2023-02-07T08:44:36.315Z,2.00
2023-02-07T08:45:36.521Z,2.00
2023-02-07T08:46:36.676Z,3.00
2023-02-07T08:47:36.288Z,5.00
2023-02-07T08:48:36.243Z,4.00
2023-02-07T08:49:36.214Z,2.00
2023-02-07T08:50:36.262Z,3.00
2023-02-07T08:51:36.426Z,1.00
2023-02-07T08:52:36.274Z,2.00
2023-02-07T08:53:36.232Z,1.00
2023-02-07T08:54:36.438Z,2.00
2023-02-07T08:55:36.195Z,2.00
2023-02-07T08:56:36.139Z,6.00
2023-02-07T08:57:36.141Z,6.00
2023-02-07T08:58:36.161Z,5.00
2023-02-07T08:59:36.106Z,3.00
2023-02-07T09:00:36.110Z,3.00
2023-02-07T09:01:36.174Z,6.00
2023-02-07T09:02:36.183Z,6.00
2023-02-07T09:03:36.054Z,9.00
2023-02-07T09:04:36.096Z,10.00
2023-02-07T09:05:36.042Z,9.00
2023-02-07T09:06:36.077Z,9.00
2023-02-07T09:07:36.044Z,10.00
2023-02-07T09:08:36.015Z,11.00
2023-02-07T09:09:36.026Z,11.00
2023-02-07T09:10:36.064Z,14.00
2023-02-07T09:11:36.876Z,12.00
2023-02-07T09:12:36.010Z,11.00
2023-02-07T09:13:35.950Z,13.00
2023-02-07T09:14:35.927Z,17.00
2023-02-07T09:15:35.940Z,14.00
2023-02-07T09:16:35.994Z,12.00
2023-02-07T09:17:35.912Z,13.00
2023-02-07T09:18:35.916Z,17.00
2023-02-07T09:19:35.856Z,18.00
2023-02-07T09:20:35.884Z,17.00
2023-02-07T09:21:35.869Z,21.00
2023-02-07T09:22:35.946Z,19.00
2023-02-07T09:23:35.885Z,17.00
2023-02-07T09:24:35.818Z,19.00
2023-02-07T09:25:35.802Z,21.00
2023-02-07T09:26:35.832Z,21.00
2023-02-07T09:27:35.818Z,22.00
2023-02-07T09:28:35.826Z,26.00
2023-02-07T09:29:35.835Z,33.00
2023-02-07T09:30:35.830Z,26.00
2023-02-07T09:31:35.886Z,25.00
2023-02-07T09:32:35.749Z,26.00
2023-02-07T09:33:35.821Z,18.00
2023-02-07T09:34:35.820Z,13.00
2023-02-07T09:35:35.766Z,22.00
2023-02-07T09:36:35.673Z,26.00
2023-02-07T09:37:48.706Z,26.00
2023-02-07T09:38:35.678Z,28.00
2023-02-07T09:39:35.694Z,31.00
2023-02-07T09:40:35.898Z,33.00
2023-02-07T09:41:35.611Z,34.00
2023-02-07T09:42:35.614Z,31.00
2023-02-07T09:43:38.601Z,32.00
2023-02-07T09:44:35.881Z,37.00
2023-02-07T09:45:35.708Z,37.00
2023-02-07T09:46:35.927Z,36.00
2023-02-07T09:47:35.607Z,33.00
2023-02-07T09:48:35.553Z,37.00
2023-02-07T09:49:35.632Z,40.00
2023-02-07T09:50:35.565Z,39.00
2023-02-07T09:51:35.676Z,40.00
2023-02-07T09:52:36.397Z,44.00
2023-02-07T09:53:35.536Z,44.00
2023-02-07T09:54:35.586Z,45.00
2023-02-07T09:55:35.565Z,42.00
2023-02-07T09:56:35.493Z,40.00
2023-02-07T09:57:35.501Z,46.00
2023-02-07T09:58:35.830Z,43.00
2023-02-07T09:59:35.419Z,45.00
2023-02-07T10:00:35.428Z,50.00
2023-02-07T10:01:35.453Z,76.00
2023-02-07T10:02:35.495Z,31.00
2023-02-07T10:03:35.450Z,60.00
2023-02-07T10:04:35.855Z,52.00
2023-02-07T10:05:35.456Z,58.00
2023-02-07T10:06:35.358Z,54.00
2023-02-07T10:07:35.425Z,52.00
2023-02-07T10:08:40.944Z,58.00
2023-02-07T10:09:35.381Z,55.00
2023-02-07T10:10:35.453Z,58.00
2023-02-07T10:11:35.385Z,61.00
2023-02-07T10:12:35.301Z,63.00
2023-02-07T10:13:35.352Z,65.00
2023-02-07T10:14:35.366Z,67.00
2023-02-07T10:15:35.330Z,69.00
2023-02-07T10:16:35.280Z,68.00
2023-02-07T10:17:35.311Z,62.00
2023-02-07T10:18:35.305Z,59.00
2023-02-07T10:19:35.309Z,69.00
2023-02-07T10:20:35.247Z,64.00
2023-02-07T10:21:35.306Z,64.00
2023-02-07T10:22:35.219Z,136.00
2023-02-07T10:23:35.365Z,43.00
2023-02-07T10:24:35.180Z,59.00
2023-02-07T10:25:35.179Z,64.00
2023-02-07T10:26:35.203Z,75.00
2023-02-07T10:27:35.913Z,76.00
2023-02-07T10:28:35.098Z,71.00
2023-02-07T10:29:35.095Z,117.00
2023-02-07T10:30:35.465Z,55.00
2023-02-07T10:31:35.207Z,71.00
2023-02-07T10:32:35.194Z,88.00
2023-02-07T10:33:35.341Z,84.00
2023-02-07T10:34:35.092Z,85.00
2023-02-07T10:35:35.140Z,87.00
2023-02-07T10:36:35.115Z,84.00
2023-02-07T10:37:35.156Z,97.00
2023-02-07T10:38:35.154Z,86.00
2023-02-07T10:39:35.446Z,96.00
2023-02-07T10:40:35.056Z,103.00
2023-02-07T10:41:35.037Z,105.00
2023-02-07T10:42:35.082Z,118.00
2023-02-07T10:43:35.029Z,103.00
2023-02-07T10:44:35.064Z,119.00
2023-02-07T10:45:35.421Z,119.00
2023-02-07T10:46:35.036Z,131.00
2023-02-07T10:47:34.925Z,137.00
2023-02-07T10:48:34.932Z,147.00
2023-02-07T10:49:34.992Z,150.00
2023-02-07T10:50:34.945Z,152.00
2023-02-07T10:51:35.411Z,151.00
2023-02-07T10:52:34.907Z,165.00
2023-02-07T10:53:38.534Z,165.00
2023-02-07T10:54:34.961Z,173.00
2023-02-07T10:55:34.869Z,179.00
2023-02-07T10:56:34.882Z,172.00
2023-02-07T10:57:34.878Z,314.00
2023-02-07T10:58:34.846Z,109.00
2023-02-07T10:59:34.878Z,109.00
2023-02-07T11:00:35.080Z,173.00
2023-02-07T11:01:34.931Z,199.00
2023-02-07T11:02:34.927Z,269.00
2023-02-07T11:03:34.894Z,118.00
2023-02-07T11:04:34.818Z,150.00
2023-02-07T11:05:34.794Z,227.00
2023-02-07T11:06:34.806Z,246.00
2023-02-07T11:07:47.117Z,224.00
2023-02-07T11:08:34.814Z,331.00
2023-02-07T11:09:35.845Z,178.00
2023-02-07T11:10:35.161Z,188.00
2023-02-07T11:11:35.755Z,230.00
2023-02-07T11:12:34.772Z,263.00
2023-02-07T11:13:35.269Z,315.00
2023-02-07T11:14:36.331Z,148.00
2023-02-07T11:15:34.996Z,264.00
2023-02-07T11:16:34.670Z,235.00
2023-02-07T11:17:35.540Z,273.00
2023-02-07T11:18:34.840Z,343.00
2023-02-07T11:19:34.873Z,269.00
2023-02-07T11:20:34.670Z,637.00
2023-02-07T11:21:34.925Z,145.00
2023-02-07T11:22:34.618Z,401.00
2023-02-07T11:23:34.585Z,290.00
2023-02-07T11:24:34.603Z,372.00
2023-02-07T11:25:34.598Z,325.00
2023-02-07T11:26:34.608Z,415.00
2023-02-07T11:27:34.660Z,652.00
2023-02-07T11:28:34.653Z,175.00
2023-02-07T11:29:34.519Z,159.00
2023-02-07T11:30:34.556Z,149.00
2023-02-07T11:31:34.581Z,160.00
2023-02-07T11:32:34.554Z,141.00
2023-02-07T11:33:34.552Z,80.00
2023-02-07T11:34:34.486Z,148.00
2023-02-07T11:35:34.502Z,253.00
2023-02-07T11:36:34.469Z,298.00
2023-02-07T11:37:34.534Z,398.00
2023-02-07T11:38:34.425Z,432.00
2023-02-07T11:39:34.507Z,351.00
2023-02-07T11:40:34.499Z,349.00
2023-02-07T11:41:34.449Z,461.00
2023-02-07T11:42:34.637Z,727.00
2023-02-07T11:43:35.077Z,168.00
2023-02-07T11:44:34.670Z,394.00
2023-02-07T11:45:34.375Z,775.00
2023-02-07T11:46:34.387Z,165.00
2023-02-07T11:47:34.454Z,688.00
2023-02-07T11:48:34.298Z,185.00
2023-02-07T11:49:34.401Z,372.00
2023-02-07T11:50:34.302Z,409.00
2023-02-07T11:51:34.274Z,428.00
2023-02-07T11:52:34.275Z,375.00
2023-02-07T11:53:34.322Z,428.00
2023-02-07T11:54:34.226Z,536.00
2023-02-07T11:55:34.236Z,328.00
2023-02-07T11:56:34.252Z,528.00
2023-02-07T11:57:34.327Z,547.00
2023-02-07T11:58:34.215Z,474.00
2023-02-07T11:59:34.228Z,239.00
2023-02-07T12:00:34.171Z,603.00
2023-02-07T12:01:34.277Z,488.00
2023-02-07T12:02:34.183Z,763.00
2023-02-07T12:03:35.377Z,363.00
2023-02-07T12:04:34.443Z,400.00
2023-02-07T12:05:34.273Z,137.00
2023-02-07T12:06:34.292Z,121.00
2023-02-07T12:07:34.165Z,131.00
2023-02-07T12:08:34.157Z,134.00
2023-02-07T12:09:34.196Z,122.00
2023-02-07T12:10:34.184Z,129.00
2023-02-07T12:11:34.184Z,130.00
2023-02-07T12:12:34.110Z,135.00
2023-02-07T12:13:34.106Z,149.00
2023-02-07T12:14:34.118Z,98.00
2023-02-07T12:15:34.130Z,305.00
2023-02-07T12:16:34.147Z,198.00
2023-02-07T12:17:34.141Z,195.00
2023-02-07T12:18:34.058Z,163.00
2023-02-07T12:19:34.068Z,167.00
2023-02-07T12:20:34.059Z,171.00
2023-02-07T12:21:34.043Z,141.00
2023-02-07T12:22:33.965Z,109.00
2023-02-07T12:23:42.253Z,134.00
2023-02-07T12:24:33.905Z,75.00
2023-02-07T12:25:34.048Z,273.00
2023-02-07T12:26:33.951Z,105.00
2023-02-07T12:27:33.992Z,101.00
2023-02-07T12:28:33.936Z,103.00
2023-02-07T12:29:33.900Z,113.00
2023-02-07T12:30:33.844Z,98.00
2023-02-07T12:31:34.091Z,95.00
2023-02-07T12:32:34.015Z,94.00
2023-02-07T12:33:33.899Z,83.00
2023-02-07T12:34:33.962Z,92.00
2023-02-07T12:35:33.862Z,91.00
2023-02-07T12:36:33.987Z,88.00
2023-02-07T12:37:33.865Z,93.00
2023-02-07T12:38:33.827Z,89.00
2023-02-07T12:39:33.794Z,94.00
2023-02-07T12:40:34.481Z,85.00
2023-02-07T12:41:33.713Z,80.00
2023-02-07T12:42:33.811Z,73.00
2023-02-07T12:43:33.767Z,95.00
2023-02-07T12:44:33.765Z,115.00
2023-02-07T12:45:33.761Z,109.00
2023-02-07T12:46:33.777Z,117.00
2023-02-07T12:47:33.733Z,107.00
2023-02-07T12:48:33.750Z,118.00
2023-02-07T12:49:33.694Z,151.00
2023-02-07T12:50:33.731Z,126.00
2023-02-07T12:51:34.474Z,130.00
2023-02-07T12:52:33.778Z,252.00
2023-02-07T12:53:33.903Z,166.00
2023-02-07T12:54:33.627Z,683.00
2023-02-07T12:55:33.696Z,148.00
2023-02-07T12:56:33.601Z,320.00
2023-02-07T12:57:33.689Z,246.00
2023-02-07T12:58:33.612Z,369.00
2023-02-07T12:59:33.544Z,181.00
2023-02-07T13:00:33.638Z,570.00
2023-02-07T13:01:33.618Z,439.00
2023-02-07T13:02:33.590Z,181.00
2023-02-07T13:03:33.724Z,423.00
2023-02-07T13:04:33.561Z,279.00
2023-02-07T13:05:33.525Z,297.00
2023-02-07T13:06:33.459Z,272.00
2023-02-07T13:07:33.468Z,259.00
2023-02-07T13:08:33.554Z,214.00
2023-02-07T13:09:33.488Z,205.00
2023-02-07T13:10:33.563Z,213.00
2023-02-07T13:11:33.463Z,203.00
2023-02-07T13:12:33.464Z,184.00
2023-02-07T13:13:33.512Z,155.00
2023-02-07T13:14:33.821Z,128.00